sensor_id;sensor_type;location;lat;lon;timestamp;P1;durP1;ratioP1;P2;durP2;ratioP2
44276;SDS011;29973;43.742;1.236;2023-03-31T00:00:42;18.77;;;4.32;;
44276;SDS011;29973;43.742;1.236;2023-03-31T00:03:08;14.63;;;3.80;;
44276;SDS011;29973;43.742;1.236;2023-03-31T00:05:37;15.07;;;3.83;;
44276;SDS011;29973;43.742;1.236;2023-03-31T00:08:03;14.98;;;4.28;;
44276;SDS011;29973;43.742;1.236;2023-03-31T00:10:30;15.70;;;4.25;;
44276;SDS011;29973;43.742;1.236;2023-03-31T00:12:58;22.77;;;4.95;;
44276;SDS011;29973;43.742;1.236;2023-03-31T00:15:25;17.83;;;4.30;;
44276;SDS011;29973;43.742;1.236;2023-03-31T00:17:51;18.30;;;4.95;;
44276;SDS011;29973;43.742;1.236;2023-03-31T00:20:17;12.15;;;4.05;;
44276;SDS011;29973;43.742;1.236;2023-03-31T00:22:44;15.70;;;4.50;;
44276;SDS011;29973;43.742;1.236;2023-03-31T00:25:12;11.30;;;3.63;;
44276;SDS011;29973;43.742;1.236;2023-03-31T00:27:42;12.40;;;4.28;;
44276;SDS011;29973;43.742;1.236;2023-03-31T00:30:09;13.48;;;4.35;;
44276;SDS011;29973;43.742;1.236;2023-03-31T00:32:39;10.23;;;3.85;;
44276;SDS011;29973;43.742;1.236;2023-03-31T00:35:04;17.13;;;4.35;;
44276;SDS011;29973;43.742;1.236;2023-03-31T00:37:31;13.75;;;4.00;;
44276;SDS011;29973;43.742;1.236;2023-03-31T00:39:59;15.70;;;5.10;;
44276;SDS011;29973;43.742;1.236;2023-03-31T00:42:25;14.25;;;4.15;;
44276;SDS011;29973;43.742;1.236;2023-03-31T00:50:34;13.93;;;3.83;;
44276;SDS011;29973;43.742;1.236;2023-03-31T00:53:22;13.88;;;3.97;;
44276;SDS011;29973;43.742;1.236;2023-03-31T00:55:52;13.20;;;3.92;;
44276;SDS011;29973;43.742;1.236;2023-03-31T00:58:21;11.00;;;4.18;;
44276;SDS011;29973;43.742;1.236;2023-03-31T01:00:52;13.98;;;4.28;;
44276;SDS011;29973;43.742;1.236;2023-03-31T01:03:21;21.67;;;4.30;;
44276;SDS011;29973;43.742;1.236;2023-03-31T01:08:20;16.40;;;4.82;;
44276;SDS011;29973;43.742;1.236;2023-03-31T01:10:50;10.90;;;3.83;;
44276;SDS011;29973;43.742;1.236;2023-03-31T01:13:21;10.70;;;3.72;;
44276;SDS011;29973;43.742;1.236;2023-03-31T01:15:48;10.25;;;3.88;;
44276;SDS011;29973;43.742;1.236;2023-03-31T01:18:14;14.73;;;4.03;;
44276;SDS011;29973;43.742;1.236;2023-03-31T01:26:32;9.60;;;3.88;;
44276;SDS011;29973;43.742;1.236;2023-03-31T01:43:17;14.70;;;4.55;;
44276;SDS011;29973;43.742;1.236;2023-03-31T01:51:31;11.55;;;3.70;;
44276;SDS011;29973;43.742;1.236;2023-03-31T01:57:28;18.50;;;4.38;;
44276;SDS011;29973;43.742;1.236;2023-03-31T01:59:37;13.32;;;4.88;;
44276;SDS011;29973;43.742;1.236;2023-03-31T02:02:12;8.80;;;4.13;;
44276;SDS011;29973;43.742;1.236;2023-03-31T02:04:51;11.25;;;4.55;;
44276;SDS011;29973;43.742;1.236;2023-03-31T02:07:31;16.88;;;4.25;;
44276;SDS011;29973;43.742;1.236;2023-03-31T02:10:03;15.23;;;4.57;;
44276;SDS011;29973;43.742;1.236;2023-03-31T02:12:32;13.02;;;4.22;;
44276;SDS011;29973;43.742;1.236;2023-03-31T02:14:59;23.25;;;4.80;;
44276;SDS011;29973;43.742;1.236;2023-03-31T02:17:27;20.23;;;4.88;;
44276;SDS011;29973;43.742;1.236;2023-03-31T02:19:58;16.60;;;3.80;;
44276;SDS011;29973;43.742;1.236;2023-03-31T02:22:30;20.52;;;4.72;;
44276;SDS011;29973;43.742;1.236;2023-03-31T02:25:00;10.73;;;5.05;;
44276;SDS011;29973;43.742;1.236;2023-03-31T02:27:35;16.83;;;5.00;;
44276;SDS011;29973;43.742;1.236;2023-03-31T02:30:04;12.10;;;4.28;;
44276;SDS011;29973;43.742;1.236;2023-03-31T02:32:34;13.32;;;5.43;;
44276;SDS011;29973;43.742;1.236;2023-03-31T02:35:14;19.05;;;5.15;;
44276;SDS011;29973;43.742;1.236;2023-03-31T02:37:42;10.70;;;4.35;;
44276;SDS011;29973;43.742;1.236;2023-03-31T02:40:16;14.63;;;5.40;;
44276;SDS011;29973;43.742;1.236;2023-03-31T02:42:44;18.92;;;5.15;;
44276;SDS011;29973;43.742;1.236;2023-03-31T02:45:44;17.00;;;5.40;;
44276;SDS011;29973;43.742;1.236;2023-03-31T02:48:26;12.35;;;4.45;;
44276;SDS011;29973;43.742;1.236;2023-03-31T02:57:03;12.60;;;5.07;;
44276;SDS011;29973;43.742;1.236;2023-03-31T03:10:07;13.13;;;4.70;;
44276;SDS011;29973;43.742;1.236;2023-03-31T03:15:48;12.38;;;5.25;;
44276;SDS011;29973;43.742;1.236;2023-03-31T03:18:22;14.20;;;5.32;;
44276;SDS011;29973;43.742;1.236;2023-03-31T03:20:48;21.15;;;5.38;;
44276;SDS011;29973;43.742;1.236;2023-03-31T03:23:15;11.88;;;4.68;;
44276;SDS011;29973;43.742;1.236;2023-03-31T03:25:42;11.27;;;4.75;;
44276;SDS011;29973;43.742;1.236;2023-03-31T03:28:08;14.05;;;4.95;;
44276;SDS011;29973;43.742;1.236;2023-03-31T03:30:34;16.02;;;5.13;;
44276;SDS011;29973;43.742;1.236;2023-03-31T03:32:59;13.18;;;5.90;;
44276;SDS011;29973;43.742;1.236;2023-03-31T03:35:25;17.77;;;5.68;;
44276;SDS011;29973;43.742;1.236;2023-03-31T03:37:51;12.43;;;4.78;;
44276;SDS011;29973;43.742;1.236;2023-03-31T03:40:16;15.40;;;5.90;;
44276;SDS011;29973;43.742;1.236;2023-03-31T03:42:42;14.90;;;5.55;;
44276;SDS011;29973;43.742;1.236;2023-03-31T03:45:08;18.25;;;5.50;;
44276;SDS011;29973;43.742;1.236;2023-03-31T03:47:34;12.63;;;5.75;;
44276;SDS011;29973;43.742;1.236;2023-03-31T03:50:00;13.25;;;5.38;;
44276;SDS011;29973;43.742;1.236;2023-03-31T03:52:27;15.50;;;5.47;;
44276;SDS011;29973;43.742;1.236;2023-03-31T03:54:53;25.20;;;5.55;;
44276;SDS011;29973;43.742;1.236;2023-03-31T03:57:19;19.13;;;6.68;;
44276;SDS011;29973;43.742;1.236;2023-03-31T03:59:45;16.98;;;5.85;;
44276;SDS011;29973;43.742;1.236;2023-03-31T04:02:11;17.92;;;5.82;;
44276;SDS011;29973;43.742;1.236;2023-03-31T04:04:37;15.20;;;5.63;;
44276;SDS011;29973;43.742;1.236;2023-03-31T04:07:03;16.83;;;5.30;;
44276;SDS011;29973;43.742;1.236;2023-03-31T04:09:29;17.27;;;4.93;;
44276;SDS011;29973;43.742;1.236;2023-03-31T04:11:54;16.52;;;4.82;;
44276;SDS011;29973;43.742;1.236;2023-03-31T04:14:20;13.05;;;4.20;;
44276;SDS011;29973;43.742;1.236;2023-03-31T04:16:46;19.02;;;5.03;;
44276;SDS011;29973;43.742;1.236;2023-03-31T04:19:12;21.17;;;5.25;;
44276;SDS011;29973;43.742;1.236;2023-03-31T04:21:41;19.38;;;4.10;;
44276;SDS011;29973;43.742;1.236;2023-03-31T04:24:09;15.13;;;3.92;;
44276;SDS011;29973;43.742;1.236;2023-03-31T04:26:39;20.65;;;4.30;;
44276;SDS011;29973;43.742;1.236;2023-03-31T04:29:12;13.25;;;4.82;;
44276;SDS011;29973;43.742;1.236;2023-03-31T04:31:44;12.50;;;4.20;;
44276;SDS011;29973;43.742;1.236;2023-03-31T04:34:11;22.38;;;4.75;;
44276;SDS011;29973;43.742;1.236;2023-03-31T04:36:39;20.05;;;6.05;;
44276;SDS011;29973;43.742;1.236;2023-03-31T04:39:07;21.67;;;6.18;;
44276;SDS011;29973;43.742;1.236;2023-03-31T04:41:35;13.57;;;5.05;;
44276;SDS011;29973;43.742;1.236;2023-03-31T04:44:01;20.58;;;5.15;;
44276;SDS011;29973;43.742;1.236;2023-03-31T04:46:26;21.20;;;5.22;;
44276;SDS011;29973;43.742;1.236;2023-03-31T04:48:52;16.55;;;4.68;;
44276;SDS011;29973;43.742;1.236;2023-03-31T04:51:18;17.15;;;5.45;;
44276;SDS011;29973;43.742;1.236;2023-03-31T04:53:44;18.38;;;4.93;;
44276;SDS011;29973;43.742;1.236;2023-03-31T04:56:10;18.58;;;5.53;;
44276;SDS011;29973;43.742;1.236;2023-03-31T04:58:37;16.60;;;5.38;;
44276;SDS011;29973;43.742;1.236;2023-03-31T05:01:03;17.48;;;6.22;;
44276;SDS011;29973;43.742;1.236;2023-03-31T05:03:32;22.88;;;7.55;;
44276;SDS011;29973;43.742;1.236;2023-03-31T05:05:58;35.10;;;8.93;;
44276;SDS011;29973;43.742;1.236;2023-03-31T05:08:24;23.17;;;6.60;;
44276;SDS011;29973;43.742;1.236;2023-03-31T05:10:51;16.55;;;5.00;;
44276;SDS011;29973;43.742;1.236;2023-03-31T05:13:17;15.65;;;5.47;;
44276;SDS011;29973;43.742;1.236;2023-03-31T05:15:43;14.65;;;5.57;;
44276;SDS011;29973;43.742;1.236;2023-03-31T05:18:09;27.85;;;5.35;;
44276;SDS011;29973;43.742;1.236;2023-03-31T05:20:35;20.15;;;4.95;;
44276;SDS011;29973;43.742;1.236;2023-03-31T05:23:01;14.48;;;5.03;;
44276;SDS011;29973;43.742;1.236;2023-03-31T05:25:27;11.93;;;4.20;;
44276;SDS011;29973;43.742;1.236;2023-03-31T05:27:56;12.57;;;4.53;;
44276;SDS011;29973;43.742;1.236;2023-03-31T05:30:23;13.88;;;4.18;;
44276;SDS011;29973;43.742;1.236;2023-03-31T05:32:50;19.60;;;5.75;;
44276;SDS011;29973;43.742;1.236;2023-03-31T05:35:16;21.10;;;5.35;;
44276;SDS011;29973;43.742;1.236;2023-03-31T05:37:44;14.63;;;4.78;;
44276;SDS011;29973;43.742;1.236;2023-03-31T05:40:09;21.73;;;5.57;;
44276;SDS011;29973;43.742;1.236;2023-03-31T05:42:36;25.13;;;4.72;;
44276;SDS011;29973;43.742;1.236;2023-03-31T05:45:02;17.58;;;5.45;;
44276;SDS011;29973;43.742;1.236;2023-03-31T05:47:28;19.45;;;5.05;;
44276;SDS011;29973;43.742;1.236;2023-03-31T05:49:54;26.10;;;7.43;;
44276;SDS011;29973;43.742;1.236;2023-03-31T05:52:20;24.60;;;7.63;;
44276;SDS011;29973;43.742;1.236;2023-03-31T05:54:46;28.25;;;8.98;;
44276;SDS011;29973;43.742;1.236;2023-03-31T05:57:12;23.45;;;7.43;;
44276;SDS011;29973;43.742;1.236;2023-03-31T05:59:37;20.95;;;6.20;;
44276;SDS011;29973;43.742;1.236;2023-03-31T06:02:04;24.77;;;5.78;;
44276;SDS011;29973;43.742;1.236;2023-03-31T06:04:30;21.45;;;5.40;;
44276;SDS011;29973;43.742;1.236;2023-03-31T06:06:56;27.13;;;5.45;;
44276;SDS011;29973;43.742;1.236;2023-03-31T06:09:23;30.63;;;5.20;;
44276;SDS011;29973;43.742;1.236;2023-03-31T06:11:49;18.23;;;5.13;;
44276;SDS011;29973;43.742;1.236;2023-03-31T06:14:15;27.88;;;7.63;;
44276;SDS011;29973;43.742;1.236;2023-03-31T06:16:41;16.63;;;5.95;;
44276;SDS011;29973;43.742;1.236;2023-03-31T06:19:07;25.63;;;6.00;;
44276;SDS011;29973;43.742;1.236;2023-03-31T06:21:33;19.70;;;5.95;;
44276;SDS011;29973;43.742;1.236;2023-03-31T06:23:59;17.75;;;5.22;;
44276;SDS011;29973;43.742;1.236;2023-03-31T06:26:25;18.65;;;5.53;;
44276;SDS011;29973;43.742;1.236;2023-03-31T06:28:51;19.35;;;5.53;;
44276;SDS011;29973;43.742;1.236;2023-03-31T06:31:19;18.67;;;5.07;;
44276;SDS011;29973;43.742;1.236;2023-03-31T06:33:47;23.90;;;5.53;;
44276;SDS011;29973;43.742;1.236;2023-03-31T06:36:14;15.65;;;4.32;;
44276;SDS011;29973;43.742;1.236;2023-03-31T06:38:41;17.50;;;5.03;;
44276;SDS011;29973;43.742;1.236;2023-03-31T06:41:08;22.70;;;5.78;;
44276;SDS011;29973;43.742;1.236;2023-03-31T06:43:36;15.73;;;4.68;;
44276;SDS011;29973;43.742;1.236;2023-03-31T06:46:01;19.88;;;5.05;;
44276;SDS011;29973;43.742;1.236;2023-03-31T06:48:28;16.00;;;4.80;;
44276;SDS011;29973;43.742;1.236;2023-03-31T06:50:54;17.90;;;5.85;;
44276;SDS011;29973;43.742;1.236;2023-03-31T06:53:20;15.77;;;6.47;;
44276;SDS011;29973;43.742;1.236;2023-03-31T06:55:46;30.80;;;6.18;;
44276;SDS011;29973;43.742;1.236;2023-03-31T06:58:12;26.02;;;5.95;;
44276;SDS011;29973;43.742;1.236;2023-03-31T07:00:38;24.98;;;5.03;;
44276;SDS011;29973;43.742;1.236;2023-03-31T07:03:05;29.98;;;5.72;;
44276;SDS011;29973;43.742;1.236;2023-03-31T07:05:32;31.08;;;5.28;;
44276;SDS011;29973;43.742;1.236;2023-03-31T07:07:59;28.90;;;5.80;;
44276;SDS011;29973;43.742;1.236;2023-03-31T07:10:28;28.33;;;6.10;;
44276;SDS011;29973;43.742;1.236;2023-03-31T07:12:55;32.08;;;7.00;;
44276;SDS011;29973;43.742;1.236;2023-03-31T07:15:21;34.40;;;6.72;;
44276;SDS011;29973;43.742;1.236;2023-03-31T07:17:48;39.63;;;6.63;;
44276;SDS011;29973;43.742;1.236;2023-03-31T07:20:15;29.17;;;5.55;;
44276;SDS011;29973;43.742;1.236;2023-03-31T07:22:46;45.20;;;7.22;;
44276;SDS011;29973;43.742;1.236;2023-03-31T07:25:15;46.13;;;7.20;;
44276;SDS011;29973;43.742;1.236;2023-03-31T07:27:41;38.05;;;6.47;;
44276;SDS011;29973;43.742;1.236;2023-03-31T07:30:08;24.90;;;5.47;;
44276;SDS011;29973;43.742;1.236;2023-03-31T07:32:36;43.30;;;7.18;;
44276;SDS011;29973;43.742;1.236;2023-03-31T07:35:04;35.65;;;6.63;;
44276;SDS011;29973;43.742;1.236;2023-03-31T07:37:38;33.72;;;7.07;;
44276;SDS011;29973;43.742;1.236;2023-03-31T07:40:05;38.40;;;7.53;;
44276;SDS011;29973;43.742;1.236;2023-03-31T07:42:32;41.30;;;7.50;;
44276;SDS011;29973;43.742;1.236;2023-03-31T07:44:59;29.63;;;6.40;;
44276;SDS011;29973;43.742;1.236;2023-03-31T07:47:25;25.10;;;5.45;;
44276;SDS011;29973;43.742;1.236;2023-03-31T07:49:51;35.33;;;8.05;;
44276;SDS011;29973;43.742;1.236;2023-03-31T07:52:17;26.70;;;5.82;;
44276;SDS011;29973;43.742;1.236;2023-03-31T07:54:44;35.55;;;6.78;;
44276;SDS011;29973;43.742;1.236;2023-03-31T07:57:10;28.80;;;5.95;;
44276;SDS011;29973;43.742;1.236;2023-03-31T07:59:36;33.65;;;5.78;;
44276;SDS011;29973;43.742;1.236;2023-03-31T08:02:02;34.20;;;6.50;;
44276;SDS011;29973;43.742;1.236;2023-03-31T08:04:28;29.00;;;6.40;;
44276;SDS011;29973;43.742;1.236;2023-03-31T08:06:53;42.58;;;7.05;;
44276;SDS011;29973;43.742;1.236;2023-03-31T08:09:19;34.83;;;5.63;;
44276;SDS011;29973;43.742;1.236;2023-03-31T08:11:46;34.13;;;6.35;;
44276;SDS011;29973;43.742;1.236;2023-03-31T08:14:12;37.80;;;7.18;;
44276;SDS011;29973;43.742;1.236;2023-03-31T08:16:38;33.20;;;7.35;;
44276;SDS011;29973;43.742;1.236;2023-03-31T08:19:04;28.60;;;6.13;;
44276;SDS011;29973;43.742;1.236;2023-03-31T08:21:30;45.80;;;6.80;;
44276;SDS011;29973;43.742;1.236;2023-03-31T08:23:56;41.70;;;7.25;;
44276;SDS011;29973;43.742;1.236;2023-03-31T08:26:22;36.80;;;6.43;;
44276;SDS011;29973;43.742;1.236;2023-03-31T08:28:49;41.20;;;8.20;;
44276;SDS011;29973;43.742;1.236;2023-03-31T08:31:16;38.15;;;6.65;;
44276;SDS011;29973;43.742;1.236;2023-03-31T08:33:46;37.53;;;8.07;;
44276;SDS011;29973;43.742;1.236;2023-03-31T08:36:12;44.42;;;7.90;;
44276;SDS011;29973;43.742;1.236;2023-03-31T08:38:39;45.83;;;8.73;;
44276;SDS011;29973;43.742;1.236;2023-03-31T08:41:09;51.80;;;8.52;;
44276;SDS011;29973;43.742;1.236;2023-03-31T08:44:01;42.15;;;7.03;;
44276;SDS011;29973;43.742;1.236;2023-03-31T08:46:33;44.20;;;8.07;;
44276;SDS011;29973;43.742;1.236;2023-03-31T08:48:59;49.03;;;6.60;;
44276;SDS011;29973;43.742;1.236;2023-03-31T08:51:40;50.60;;;7.82;;
44276;SDS011;29973;43.742;1.236;2023-03-31T08:54:11;44.15;;;7.47;;
44276;SDS011;29973;43.742;1.236;2023-03-31T08:56:43;41.53;;;6.93;;
44276;SDS011;29973;43.742;1.236;2023-03-31T08:59:16;54.55;;;8.93;;
44276;SDS011;29973;43.742;1.236;2023-03-31T09:04:46;56.28;;;8.80;;
44276;SDS011;29973;43.742;1.236;2023-03-31T09:07:50;52.08;;;7.95;;
44276;SDS011;29973;43.742;1.236;2023-03-31T09:10:27;49.22;;;7.35;;
44276;SDS011;29973;43.742;1.236;2023-03-31T09:21:01;43.60;;;6.68;;
44276;SDS011;29973;43.742;1.236;2023-03-31T09:24:38;40.85;;;8.45;;
44276;SDS011;29973;43.742;1.236;2023-03-31T09:26:50;39.03;;;7.65;;
44276;SDS011;29973;43.742;1.236;2023-03-31T09:29:22;40.58;;;7.28;;
44276;SDS011;29973;43.742;1.236;2023-03-31T09:31:53;35.00;;;7.43;;
44276;SDS011;29973;43.742;1.236;2023-03-31T09:34:26;44.17;;;8.52;;
44276;SDS011;29973;43.742;1.236;2023-03-31T09:36:55;48.58;;;7.30;;
44276;SDS011;29973;43.742;1.236;2023-03-31T09:39:21;42.20;;;7.75;;
44276;SDS011;29973;43.742;1.236;2023-03-31T09:41:48;40.75;;;7.75;;
44276;SDS011;29973;43.742;1.236;2023-03-31T09:47:03;43.00;;;7.90;;
44276;SDS011;29973;43.742;1.236;2023-03-31T09:49:43;56.15;;;7.97;;
44276;SDS011;29973;43.742;1.236;2023-03-31T09:54:45;37.20;;;6.50;;
44276;SDS011;29973;43.742;1.236;2023-03-31T09:57:25;41.10;;;6.43;;
44276;SDS011;29973;43.742;1.236;2023-03-31T09:59:52;35.38;;;6.40;;
44276;SDS011;29973;43.742;1.236;2023-03-31T10:04:59;45.17;;;7.90;;
44276;SDS011;29973;43.742;1.236;2023-03-31T10:07:25;38.90;;;6.72;;
44276;SDS011;29973;43.742;1.236;2023-03-31T10:09:52;35.05;;;6.72;;
44276;SDS011;29973;43.742;1.236;2023-03-31T10:12:21;34.10;;;6.10;;
44276;SDS011;29973;43.742;1.236;2023-03-31T10:14:50;47.45;;;7.95;;
44276;SDS011;29973;43.742;1.236;2023-03-31T10:17:19;49.70;;;7.28;;
44276;SDS011;29973;43.742;1.236;2023-03-31T10:19:53;42.22;;;7.13;;
44276;SDS011;29973;43.742;1.236;2023-03-31T10:24:48;41.65;;;6.55;;
44276;SDS011;29973;43.742;1.236;2023-03-31T10:27:22;41.70;;;6.63;;
44276;SDS011;29973;43.742;1.236;2023-03-31T10:29:56;38.37;;;6.03;;
44276;SDS011;29973;43.742;1.236;2023-03-31T10:32:24;35.40;;;6.72;;
44276;SDS011;29973;43.742;1.236;2023-03-31T10:35:10;37.97;;;7.35;;
44276;SDS011;29973;43.742;1.236;2023-03-31T10:37:56;33.20;;;6.57;;
44276;SDS011;29973;43.742;1.236;2023-03-31T10:40:26;34.58;;;6.28;;
44276;SDS011;29973;43.742;1.236;2023-03-31T10:43:01;40.33;;;6.40;;
44276;SDS011;29973;43.742;1.236;2023-03-31T10:45:28;36.97;;;6.75;;
44276;SDS011;29973;43.742;1.236;2023-03-31T10:48:00;41.15;;;7.25;;
44276;SDS011;29973;43.742;1.236;2023-03-31T10:50:27;29.50;;;6.03;;
44276;SDS011;29973;43.742;1.236;2023-03-31T10:55:58;33.90;;;6.38;;
44276;SDS011;29973;43.742;1.236;2023-03-31T11:26:48;32.30;;;6.10;;
44276;SDS011;29973;43.742;1.236;2023-03-31T11:46:25;22.73;;;4.47;;
44276;SDS011;29973;43.742;1.236;2023-03-31T11:49:00;29.83;;;6.25;;
44276;SDS011;29973;43.742;1.236;2023-03-31T11:54:06;24.55;;;5.38;;
44276;SDS011;29973;43.742;1.236;2023-03-31T11:56:41;26.85;;;5.45;;
44276;SDS011;29973;43.742;1.236;2023-03-31T11:59:08;28.88;;;5.65;;
44276;SDS011;29973;43.742;1.236;2023-03-31T12:01:49;25.23;;;4.00;;
44276;SDS011;29973;43.742;1.236;2023-03-31T12:04:39;23.27;;;4.72;;
44276;SDS011;29973;43.742;1.236;2023-03-31T12:07:53;25.83;;;5.20;;
44276;SDS011;29973;43.742;1.236;2023-03-31T12:10:21;25.52;;;4.22;;
44276;SDS011;29973;43.742;1.236;2023-03-31T12:16:12;30.10;;;5.20;;
44276;SDS011;29973;43.742;1.236;2023-03-31T12:21:30;26.65;;;5.05;;
44276;SDS011;29973;43.742;1.236;2023-03-31T12:23:58;23.08;;;4.25;;
44276;SDS011;29973;43.742;1.236;2023-03-31T12:26:42;24.92;;;5.30;;
44276;SDS011;29973;43.742;1.236;2023-03-31T12:29:24;26.95;;;5.10;;
44276;SDS011;29973;43.742;1.236;2023-03-31T12:31:56;23.75;;;5.07;;
44276;SDS011;29973;43.742;1.236;2023-03-31T12:34:25;25.80;;;5.40;;
44276;SDS011;29973;43.742;1.236;2023-03-31T12:45:36;23.30;;;5.03;;
44276;SDS011;29973;43.742;1.236;2023-03-31T12:48:26;20.40;;;3.90;;
44276;SDS011;29973;43.742;1.236;2023-03-31T12:54:42;19.63;;;4.45;;
44276;SDS011;29973;43.742;1.236;2023-03-31T12:57:29;17.88;;;4.47;;
44276;SDS011;29973;43.742;1.236;2023-03-31T13:02:47;21.85;;;4.60;;
44276;SDS011;29973;43.742;1.236;2023-03-31T13:08:04;27.17;;;5.27;;
44276;SDS011;29973;43.742;1.236;2023-03-31T13:10:32;25.98;;;4.93;;
44276;SDS011;29973;43.742;1.236;2023-03-31T13:13:16;18.15;;;4.80;;
44276;SDS011;29973;43.742;1.236;2023-03-31T13:15:54;27.40;;;4.45;;
44276;SDS011;29973;43.742;1.236;2023-03-31T13:18:22;22.95;;;4.05;;
44276;SDS011;29973;43.742;1.236;2023-03-31T13:20:57;17.90;;;4.30;;
44276;SDS011;29973;43.742;1.236;2023-03-31T13:23:29;20.85;;;4.40;;
44276;SDS011;29973;43.742;1.236;2023-03-31T13:25:58;19.93;;;5.20;;
44276;SDS011;29973;43.742;1.236;2023-03-31T13:30:59;16.52;;;3.60;;
44276;SDS011;29973;43.742;1.236;2023-03-31T13:33:50;14.98;;;3.85;;
44276;SDS011;29973;43.742;1.236;2023-03-31T13:49:50;15.18;;;3.22;;
44276;SDS011;29973;43.742;1.236;2023-03-31T13:52:34;19.30;;;3.97;;
44276;SDS011;29973;43.742;1.236;2023-03-31T14:01:30;17.77;;;3.10;;
44276;SDS011;29973;43.742;1.236;2023-03-31T14:12:20;17.75;;;3.22;;
44276;SDS011;29973;43.742;1.236;2023-03-31T14:14:57;17.77;;;3.17;;
44276;SDS011;29973;43.742;1.236;2023-03-31T14:17:25;11.60;;;2.50;;
44276;SDS011;29973;43.742;1.236;2023-03-31T14:20:03;19.90;;;3.47;;
44276;SDS011;29973;43.742;1.236;2023-03-31T14:38:39;8.23;;;2.10;;
44276;SDS011;29973;43.742;1.236;2023-03-31T14:41:05;24.33;;;4.15;;
44276;SDS011;29973;43.742;1.236;2023-03-31T14:43:39;11.55;;;2.35;;
44276;SDS011;29973;43.742;1.236;2023-03-31T14:46:17;18.15;;;3.15;;
44276;SDS011;29973;43.742;1.236;2023-03-31T14:48:45;30.83;;;3.85;;
44276;SDS011;29973;43.742;1.236;2023-03-31T14:51:24;15.43;;;2.75;;
44276;SDS011;29973;43.742;1.236;2023-03-31T14:53:58;16.55;;;3.25;;
44276;SDS011;29973;43.742;1.236;2023-03-31T14:56:30;14.90;;;3.28;;
44276;SDS011;29973;43.742;1.236;2023-03-31T14:59:01;16.27;;;3.30;;
44276;SDS011;29973;43.742;1.236;2023-03-31T15:01:29;24.73;;;3.60;;
44276;SDS011;29973;43.742;1.236;2023-03-31T15:04:00;20.50;;;3.85;;
44276;SDS011;29973;43.742;1.236;2023-03-31T15:06:31;26.30;;;5.25;;
44276;SDS011;29973;43.742;1.236;2023-03-31T15:08:59;22.63;;;4.53;;
44276;SDS011;29973;43.742;1.236;2023-03-31T15:11:28;23.52;;;4.35;;
44276;SDS011;29973;43.742;1.236;2023-03-31T15:13:55;18.05;;;3.80;;
44276;SDS011;29973;43.742;1.236;2023-03-31T15:16:29;18.90;;;3.63;;
44276;SDS011;29973;43.742;1.236;2023-03-31T15:19:16;27.65;;;3.85;;
44276;SDS011;29973;43.742;1.236;2023-03-31T15:21:53;17.65;;;3.95;;
44276;SDS011;29973;43.742;1.236;2023-03-31T15:24:28;19.90;;;3.38;;
44276;SDS011;29973;43.742;1.236;2023-03-31T15:27:15;27.58;;;4.53;;
44276;SDS011;29973;43.742;1.236;2023-03-31T15:29:47;23.33;;;3.90;;
44276;SDS011;29973;43.742;1.236;2023-03-31T15:32:19;12.70;;;2.78;;
44276;SDS011;29973;43.742;1.236;2023-03-31T15:34:49;19.60;;;3.72;;
44276;SDS011;29973;43.742;1.236;2023-03-31T15:37:18;21.13;;;3.92;;
44276;SDS011;29973;43.742;1.236;2023-03-31T15:39:53;21.60;;;3.28;;
44276;SDS011;29973;43.742;1.236;2023-03-31T15:42:22;14.80;;;3.23;;
44276;SDS011;29973;43.742;1.236;2023-03-31T15:44:56;21.65;;;4.22;;
44276;SDS011;29973;43.742;1.236;2023-03-31T15:47:51;21.23;;;3.70;;
44276;SDS011;29973;43.742;1.236;2023-03-31T15:50:20;13.82;;;3.33;;
44276;SDS011;29973;43.742;1.236;2023-03-31T15:52:47;18.30;;;3.55;;
44276;SDS011;29973;43.742;1.236;2023-03-31T15:57:53;22.13;;;3.90;;
44276;SDS011;29973;43.742;1.236;2023-03-31T16:02:58;14.50;;;3.17;;
44276;SDS011;29973;43.742;1.236;2023-03-31T16:05:39;19.65;;;4.00;;
44276;SDS011;29973;43.742;1.236;2023-03-31T16:08:17;24.63;;;4.10;;
44276;SDS011;29973;43.742;1.236;2023-03-31T16:10:48;28.65;;;4.55;;
44276;SDS011;29973;43.742;1.236;2023-03-31T16:13:31;28.58;;;4.20;;
44276;SDS011;29973;43.742;1.236;2023-03-31T16:15:57;14.55;;;3.58;;
44276;SDS011;29973;43.742;1.236;2023-03-31T16:20:56;25.70;;;3.92;;
44276;SDS011;29973;43.742;1.236;2023-03-31T16:23:25;21.85;;;4.03;;
44276;SDS011;29973;43.742;1.236;2023-03-31T16:25:56;19.73;;;4.47;;
44276;SDS011;29973;43.742;1.236;2023-03-31T16:28:26;22.27;;;4.55;;
44276;SDS011;29973;43.742;1.236;2023-03-31T16:30:55;20.80;;;4.13;;
44276;SDS011;29973;43.742;1.236;2023-03-31T16:33:25;20.93;;;4.87;;
44276;SDS011;29973;43.742;1.236;2023-03-31T16:35:53;22.50;;;3.45;;
44276;SDS011;29973;43.742;1.236;2023-03-31T16:38:23;31.83;;;4.73;;
44276;SDS011;29973;43.742;1.236;2023-03-31T16:40:54;30.27;;;4.93;;
44276;SDS011;29973;43.742;1.236;2023-03-31T16:43:22;24.77;;;4.63;;
44276;SDS011;29973;43.742;1.236;2023-03-31T16:45:59;32.30;;;5.70;;
44276;SDS011;29973;43.742;1.236;2023-03-31T16:48:28;23.05;;;5.03;;
44276;SDS011;29973;43.742;1.236;2023-03-31T16:50:55;27.27;;;5.18;;
44276;SDS011;29973;43.742;1.236;2023-03-31T16:53:23;25.40;;;4.22;;
44276;SDS011;29973;43.742;1.236;2023-03-31T16:55:53;17.20;;;4.85;;
44276;SDS011;29973;43.742;1.236;2023-03-31T16:58:19;22.00;;;3.80;;
44276;SDS011;29973;43.742;1.236;2023-03-31T17:00:47;10.77;;;2.45;;
44276;SDS011;29973;43.742;1.236;2023-03-31T17:03:13;29.48;;;5.20;;
44276;SDS011;29973;43.742;1.236;2023-03-31T17:05:44;27.65;;;4.47;;
44276;SDS011;29973;43.742;1.236;2023-03-31T17:08:19;20.58;;;2.85;;
44276;SDS011;29973;43.742;1.236;2023-03-31T17:10:54;23.05;;;4.95;;
44276;SDS011;29973;43.742;1.236;2023-03-31T17:13:28;24.65;;;4.85;;
44276;SDS011;29973;43.742;1.236;2023-03-31T17:15:55;24.08;;;4.18;;
44276;SDS011;29973;43.742;1.236;2023-03-31T17:18:21;32.35;;;5.05;;
44276;SDS011;29973;43.742;1.236;2023-03-31T17:20:46;22.40;;;4.68;;
44276;SDS011;29973;43.742;1.236;2023-03-31T17:23:12;26.92;;;5.13;;
44276;SDS011;29973;43.742;1.236;2023-03-31T17:25:44;24.77;;;4.07;;
44276;SDS011;29973;43.742;1.236;2023-03-31T17:28:11;23.00;;;3.90;;
44276;SDS011;29973;43.742;1.236;2023-03-31T17:30:37;33.70;;;6.45;;
44276;SDS011;29973;43.742;1.236;2023-03-31T17:33:03;19.40;;;4.30;;
44276;SDS011;29973;43.742;1.236;2023-03-31T17:35:29;37.47;;;4.68;;
44276;SDS011;29973;43.742;1.236;2023-03-31T17:37:55;20.95;;;3.78;;
44276;SDS011;29973;43.742;1.236;2023-03-31T17:40:21;16.15;;;3.15;;
44276;SDS011;29973;43.742;1.236;2023-03-31T17:42:47;34.15;;;5.22;;
44276;SDS011;29973;43.742;1.236;2023-03-31T17:45:13;29.45;;;4.97;;
44276;SDS011;29973;43.742;1.236;2023-03-31T17:47:40;28.20;;;4.47;;
44276;SDS011;29973;43.742;1.236;2023-03-31T17:50:06;18.35;;;4.13;;
44276;SDS011;29973;43.742;1.236;2023-03-31T17:52:33;25.25;;;4.55;;
44276;SDS011;29973;43.742;1.236;2023-03-31T17:55:00;25.80;;;4.68;;
44276;SDS011;29973;43.742;1.236;2023-03-31T17:57:26;29.92;;;5.20;;
44276;SDS011;29973;43.742;1.236;2023-03-31T17:59:52;23.85;;;4.35;;
44276;SDS011;29973;43.742;1.236;2023-03-31T18:02:18;32.22;;;5.40;;
44276;SDS011;29973;43.742;1.236;2023-03-31T18:04:44;28.75;;;4.82;;
44276;SDS011;29973;43.742;1.236;2023-03-31T18:07:10;16.80;;;4.57;;
44276;SDS011;29973;43.742;1.236;2023-03-31T18:09:37;27.63;;;3.90;;
44276;SDS011;29973;43.742;1.236;2023-03-31T18:12:03;18.25;;;3.97;;
44276;SDS011;29973;43.742;1.236;2023-03-31T18:14:29;27.85;;;5.72;;
44276;SDS011;29973;43.742;1.236;2023-03-31T18:16:55;17.83;;;4.10;;
44276;SDS011;29973;43.742;1.236;2023-03-31T18:19:22;30.35;;;6.15;;